Pinetown, North Carolina
Current Conditions -  °F | °C
As of 11:15 PM on Friday 31 Oct 2014 (Local Time) from KOCW Reporting Station
Clear Clear  
Wind Chill: 45°   Ceiling: Unl
Heat Index: 47°   Visibility: 10mi
Dew Point: 42°   Wind: 5mph
Humidity: 83%   Direction: 40°NE
Pressure: 29.78"   Gusts: NA
Location:  35.61°N, 76.86°W
Report Text: KOCW 010315Z AUTO 04004KT 10SM CLR 08/05 A2978 RMK AO2 T00820054
Loading
Personal Weather Stations






























Interactive Weather Map
Tropical Storm Tracking
New forecast layout! Learn more

10-Day Weather Forecast

Advertisements
Track Severe Weather on mobile